createdAt,value
2023-03-24T00:00:27.063Z,98115.34
2023-03-24T00:02:54.084Z,98105.97
2023-03-24T00:05:23.365Z,98104.53
2023-03-24T00:07:54.766Z,98094.81
2023-03-24T00:10:22.930Z,98110.94
2023-03-24T00:12:50.713Z,98097.91
2023-03-24T00:15:21.415Z,98086.28
2023-03-24T00:17:52.605Z,98084.66
2023-03-24T00:20:22.378Z,98076.00
2023-03-24T00:22:56.557Z,98077.19
2023-03-24T00:25:33.849Z,98086.75
2023-03-24T00:28:01.427Z,98084.16
2023-03-24T00:30:28.726Z,98053.97
2023-03-24T00:32:58.995Z,98055.97
2023-03-24T00:35:25.968Z,98069.97
2023-03-24T00:37:52.847Z,98073.19
2023-03-24T00:40:21.510Z,98064.06
2023-03-24T00:42:49.973Z,98055.53
2023-03-24T00:45:20.599Z,98062.38
2023-03-24T00:47:50.093Z,98052.09
2023-03-24T00:50:20.602Z,98034.94
2023-03-24T00:52:49.037Z,98019.28
2023-03-24T00:55:16.258Z,98028.16
2023-03-24T00:57:50.171Z,98025.22
2023-03-24T01:00:21.693Z,98036.69
2023-03-24T01:02:54.327Z,98025.69
2023-03-24T01:05:27.972Z,98026.66
2023-03-24T01:08:03.277Z,98024.03
2023-03-24T01:10:42.506Z,98010.66
2023-03-24T01:13:10.328Z,98009.59
2023-03-24T01:15:37.193Z,97997.53
2023-03-24T01:18:04.189Z,97980.47
2023-03-24T01:20:33.168Z,97965.94
2023-03-24T01:23:01.850Z,97992.78
2023-03-24T01:25:30.509Z,97972.91
2023-03-24T01:27:57.546Z,97968.75
2023-03-24T01:30:30.928Z,97959.63
2023-03-24T01:32:58.346Z,97957.03
2023-03-24T01:35:28.925Z,97950.31
2023-03-24T01:37:57.468Z,97943.56
2023-03-24T01:40:29.342Z,97961.31
2023-03-24T01:42:57.265Z,97936.44
2023-03-24T01:45:39.592Z,97960.72
2023-03-24T01:48:21.925Z,97913.25
2023-03-24T01:50:58.748Z,97957.03
2023-03-24T01:53:26.348Z,97953.72
2023-03-24T01:55:54.703Z,97941.41
2023-03-24T01:58:22.169Z,97946.25
2023-03-24T02:00:49.582Z,97917.50
2023-03-24T02:03:20.967Z,97948.16
2023-03-24T02:05:52.426Z,97927.91
2023-03-24T02:08:32.820Z,97952.03
2023-03-24T02:11:01.521Z,97937.50
2023-03-24T02:13:28.849Z,97954.88
2023-03-24T02:16:16.228Z,97948.84
2023-03-24T02:18:58.308Z,97940.56
2023-03-24T02:21:55.876Z,97926.50
2023-03-24T02:25:01.005Z,97945.78
2023-03-24T02:27:48.137Z,97957.25
2023-03-24T02:30:59.889Z,97944.81
2023-03-24T02:34:02.365Z,97945.41
2023-03-24T02:36:48.947Z,97943.25
2023-03-24T02:39:56.781Z,97943.97
2023-03-24T02:42:48.958Z,97950.25
2023-03-24T02:45:29.925Z,97952.88
2023-03-24T02:48:23.508Z,97944.47
2023-03-24T02:51:06.771Z,97949.66
2023-03-24T02:53:49.832Z,97948.00
2023-03-24T02:56:39.218Z,97945.50
2023-03-24T02:59:12.049Z,97906.59
2023-03-24T03:01:54.431Z,97921.25
2023-03-24T03:04:34.210Z,97911.34
2023-03-24T03:07:12.878Z,97918.09
2023-03-24T03:09:47.828Z,97899.94
2023-03-24T03:12:15.227Z,97915.34
2023-03-24T03:14:49.132Z,97905.53
2023-03-24T03:17:24.026Z,97911.56
2023-03-24T03:19:58.478Z,97895.63
2023-03-24T03:22:34.214Z,97905.53
2023-03-24T03:25:03.395Z,97892.41
2023-03-24T03:27:38.875Z,97877.03
2023-03-24T03:30:18.334Z,97892.19
2023-03-24T03:32:57.561Z,97892.91
2023-03-24T03:35:36.732Z,97881.97
2023-03-24T03:38:19.405Z,97875.38
2023-03-24T03:41:12.732Z,97888.63
2023-03-24T03:43:39.600Z,97873.88
2023-03-24T03:46:07.296Z,97892.16
2023-03-24T03:48:35.462Z,97895.47
2023-03-24T03:51:12.858Z,97898.19
2023-03-24T03:54:09.112Z,97902.53
2023-03-24T03:56:38.299Z,97903.97
2023-03-24T03:59:06.696Z,97892.63
2023-03-24T04:01:37.290Z,97871.94
2023-03-24T04:04:26.465Z,97890.75
2023-03-24T04:07:15.499Z,97881.53
2023-03-24T04:10:23.012Z,97887.22
2023-03-24T04:13:08.702Z,97891.34
2023-03-24T04:16:02.396Z,97893.81
2023-03-24T04:18:44.780Z,97898.34
2023-03-24T04:21:28.306Z,97870.88
2023-03-24T04:24:29.034Z,97901.75
2023-03-24T04:27:14.559Z,97904.47
2023-03-24T04:30:16.521Z,97903.53
2023-03-24T04:32:58.551Z,97883.53
2023-03-24T04:35:33.208Z,97872.06
2023-03-24T04:38:09.214Z,97844.28
2023-03-24T04:40:41.775Z,97868.66
2023-03-24T04:43:14.010Z,97868.06
2023-03-24T04:45:41.682Z,97874.91
2023-03-24T04:48:11.975Z,97892.41
2023-03-24T04:50:43.120Z,97886.38
2023-03-24T04:53:10.703Z,97874.91
2023-03-24T04:55:49.556Z,97905.31
2023-03-24T04:58:17.949Z,97889.66
2023-03-24T05:00:45.384Z,97903.53
2023-03-24T05:03:14.163Z,97918.53
2023-03-24T05:05:47.030Z,97918.19
2023-03-24T05:08:15.286Z,97906.81
2023-03-24T05:10:42.739Z,97935.91
2023-03-24T05:13:09.641Z,97947.50
2023-03-24T05:15:36.563Z,97933.66
2023-03-24T05:18:05.016Z,97949.38
2023-03-24T05:20:32.430Z,97961.56
2023-03-24T05:22:59.465Z,97955.97
2023-03-24T05:25:26.329Z,97966.63
2023-03-24T05:27:53.156Z,97977.50
2023-03-24T05:30:20.522Z,97979.03
2023-03-24T05:32:47.597Z,97983.75
2023-03-24T05:35:14.974Z,97989.25
2023-03-24T05:37:41.840Z,98003.63
2023-03-24T05:40:09.885Z,98003.88
2023-03-24T05:42:36.718Z,97991.47
2023-03-24T05:45:04.137Z,97995.75
2023-03-24T05:47:31.133Z,98032.00
2023-03-24T05:49:57.952Z,98029.63
2023-03-24T05:52:26.111Z,98031.19
2023-03-24T05:54:54.267Z,98031.28
2023-03-24T05:57:21.535Z,98043.25
2023-03-24T05:59:48.344Z,98026.78
2023-03-24T06:02:15.595Z,98033.19
2023-03-24T06:04:46.636Z,98020.19
2023-03-24T06:07:13.722Z,98046.31
2023-03-24T06:09:46.896Z,98042.69
2023-03-24T06:12:14.673Z,98035.91
2023-03-24T06:14:41.549Z,98028.81
2023-03-24T06:17:08.575Z,98023.75
2023-03-24T06:19:38.574Z,98020.66
2023-03-24T06:22:06.276Z,98021.94
2023-03-24T06:24:34.712Z,98040.56
2023-03-24T06:27:02.419Z,98044.69
2023-03-24T06:29:31.122Z,98036.28
2023-03-24T06:31:57.912Z,98025.38
2023-03-24T06:34:25.233Z,98025.38
2023-03-24T06:36:52.566Z,98020.31
2023-03-24T06:39:19.429Z,98034.38
2023-03-24T06:41:46.407Z,98041.53
2023-03-24T06:44:13.729Z,98038.56
2023-03-24T06:46:40.711Z,98050.28
2023-03-24T06:49:07.783Z,98040.56
2023-03-24T06:51:34.950Z,98058.22
2023-03-24T06:54:01.968Z,98023.25
2023-03-24T06:56:29.029Z,98040.69
2023-03-24T06:58:56.690Z,98052.75
2023-03-24T07:01:24.498Z,98035.47
2023-03-24T07:03:51.585Z,98040.09
2023-03-24T07:06:19.173Z,98048.63
2023-03-24T07:08:47.059Z,98027.06
2023-03-24T07:11:14.701Z,98053.97
2023-03-24T07:13:42.041Z,98060.00
2023-03-24T07:16:09.105Z,98063.28
2023-03-24T07:18:36.074Z,98049.41
2023-03-24T07:21:02.988Z,98067.94
2023-03-24T07:23:30.413Z,98061.09
2023-03-24T07:25:57.288Z,98077.06
2023-03-24T07:28:24.263Z,98085.47
2023-03-24T07:30:53.266Z,98049.28
2023-03-24T07:33:24.247Z,98089.47
2023-03-24T07:35:56.212Z,98095.41
2023-03-24T07:38:24.476Z,98107.47
2023-03-24T07:40:51.267Z,98084.84
2023-03-24T07:43:18.125Z,98103.69
2023-03-24T07:45:48.314Z,98104.50
2023-03-24T07:48:15.443Z,98110.19
2023-03-24T07:50:42.604Z,98121.56
2023-03-24T07:53:09.820Z,98113.28
2023-03-24T07:55:38.596Z,98123.22
2023-03-24T07:58:06.233Z,98116.44
2023-03-24T08:00:33.649Z,98120.59
2023-03-24T08:03:00.952Z,98108.31
2023-03-24T08:05:30.761Z,98093.22
2023-03-24T08:07:58.534Z,98079.78
2023-03-24T08:10:30.163Z,98103.94
2023-03-24T08:12:59.005Z,98110.88
2023-03-24T08:15:27.204Z,98124.25
2023-03-24T08:17:56.384Z,98120.03
2023-03-24T08:20:24.936Z,98114.84
2023-03-24T08:22:54.083Z,98131.84
2023-03-24T08:25:24.142Z,98137.78
2023-03-24T08:27:52.052Z,98108.66
2023-03-24T08:30:25.109Z,98129.25
2023-03-24T08:32:58.219Z,98106.66
2023-03-24T08:35:32.404Z,98102.63
2023-03-24T08:38:01.127Z,98100.00
2023-03-24T08:40:29.374Z,98098.56
2023-03-24T08:42:59.902Z,98087.00
2023-03-24T08:45:30.568Z,98080.94
2023-03-24T08:48:01.348Z,98039.41
2023-03-24T08:50:34.546Z,98047.00
2023-03-24T08:53:02.474Z,98004.84
2023-03-24T08:55:29.834Z,97991.13
2023-03-24T08:57:57.304Z,97985.91
2023-03-24T09:00:24.589Z,98033.13
2023-03-24T09:02:54.270Z,98029.47
2023-03-24T09:05:36.620Z,98055.50
2023-03-24T09:08:08.286Z,98061.97
2023-03-24T09:10:35.613Z,98070.94
2023-03-24T09:13:04.540Z,98089.22
2023-03-24T09:15:32.198Z,98081.53
2023-03-24T09:17:59.747Z,98091.25
2023-03-24T09:20:27.273Z,98097.66
2023-03-24T09:22:54.301Z,98080.13
2023-03-24T09:25:24.555Z,98093.59
2023-03-24T09:27:52.108Z,98096.81
2023-03-24T09:30:19.261Z,98099.53
2023-03-24T09:32:47.037Z,98079.06
2023-03-24T09:35:14.988Z,98094.34
2023-03-24T09:37:44.063Z,98099.28
2023-03-24T09:40:25.145Z,98098.69
2023-03-24T09:43:07.047Z,98105.22
2023-03-24T09:45:37.994Z,98077.06
2023-03-24T09:48:31.648Z,98063.56
2023-03-24T09:51:15.881Z,98086.28
2023-03-24T09:54:04.049Z,98097.69
2023-03-24T09:56:34.064Z,98103.94
2023-03-24T09:59:16.403Z,98112.59
2023-03-24T10:01:43.513Z,98107.16
2023-03-24T10:04:22.849Z,98091.03
2023-03-24T10:06:58.810Z,98095.78
2023-03-24T10:09:49.096Z,98068.78
2023-03-24T10:12:42.843Z,98074.56
2023-03-24T10:15:48.341Z,98080.97
2023-03-24T10:18:31.005Z,98084.16
2023-03-24T10:21:20.751Z,98082.69
2023-03-24T10:24:21.212Z,98085.13
2023-03-24T10:27:15.352Z,98087.56
2023-03-24T10:29:45.936Z,98055.56
2023-03-24T10:32:20.827Z,98060.84
2023-03-24T10:34:53.818Z,98059.44
2023-03-24T10:37:21.126Z,98064.44
2023-03-24T10:39:48.368Z,98051.41
2023-03-24T10:42:21.766Z,98072.22
2023-03-24T10:44:51.350Z,98070.78
2023-03-24T10:47:28.145Z,98078.22
2023-03-24T10:50:00.700Z,98090.22
2023-03-24T10:52:41.892Z,98075.34
2023-03-24T10:55:18.839Z,98084.00
2023-03-24T10:57:49.816Z,98087.19
2023-03-24T11:00:29.733Z,98085.69
2023-03-24T11:03:06.062Z,98105.72
2023-03-24T11:05:38.733Z,98100.66
2023-03-24T11:08:36.908Z,98126.72
2023-03-24T11:11:30.374Z,98102.91
2023-03-24T11:14:01.491Z,98102.06
2023-03-24T11:16:32.781Z,98103.44
2023-03-24T11:19:06.094Z,98101.66
2023-03-24T11:21:37.170Z,98143.75
2023-03-24T11:24:15.708Z,98099.19
2023-03-24T11:26:53.110Z,98116.47
2023-03-24T11:29:25.604Z,98113.13
2023-03-24T11:32:02.016Z,98136.13
2023-03-24T11:34:42.389Z,98134.53
2023-03-24T11:37:17.512Z,98091.06
2023-03-24T11:39:44.648Z,98093.63
2023-03-24T11:42:11.991Z,98103.75
2023-03-24T11:44:38.969Z,98123.41
2023-03-24T11:47:30.914Z,98147.63
2023-03-24T11:50:09.011Z,98114.91
2023-03-24T11:53:19.341Z,98104.09
2023-03-24T11:56:27.960Z,98122.59
2023-03-24T11:59:26.702Z,98107.69
2023-03-24T12:02:02.727Z,98109.91
2023-03-24T12:04:46.733Z,98110.88
2023-03-24T12:07:50.882Z,98115.72
2023-03-24T12:10:41.239Z,98103.34
2023-03-24T12:13:29.916Z,98117.38
2023-03-24T12:16:24.233Z,98085.91
2023-03-24T12:19:27.557Z,98066.78
2023-03-24T12:22:21.072Z,98119.47
2023-03-24T12:25:08.948Z,98100.81
2023-03-24T12:28:10.311Z,98113.16
2023-03-24T12:31:01.977Z,98114.47
2023-03-24T12:33:54.662Z,98104.31
2023-03-24T12:36:42.487Z,98126.34
2023-03-24T12:39:12.761Z,98105.03
2023-03-24T12:42:04.797Z,98120.16
2023-03-24T12:45:12.154Z,98131.06
2023-03-24T12:47:45.335Z,98115.34
2023-03-24T12:50:56.503Z,98114.75
2023-03-24T12:53:41.823Z,98108.56
2023-03-24T12:56:16.438Z,98105.75
2023-03-24T12:58:54.507Z,98112.50
2023-03-24T13:01:40.489Z,98109.53
2023-03-24T13:04:34.089Z,98090.16
2023-03-24T13:07:11.877Z,98075.41
2023-03-24T13:09:49.702Z,98085.06
2023-03-24T13:12:41.214Z,98069.94
2023-03-24T13:15:36.254Z,98080.97
2023-03-24T13:18:11.951Z,98084.88
2023-03-24T13:21:11.748Z,98081.75
2023-03-24T13:23:47.038Z,98084.50
2023-03-24T13:26:40.077Z,98070.38
2023-03-24T13:29:48.944Z,98068.84
2023-03-24T13:32:23.574Z,98071.13
2023-03-24T13:35:35.021Z,98046.78
2023-03-24T13:38:39.195Z,98067.09
2023-03-24T13:41:07.802Z,98055.97
2023-03-24T13:43:34.894Z,98068.19
2023-03-24T13:46:16.298Z,98062.59
2023-03-24T13:48:47.085Z,98065.66
2023-03-24T13:51:26.647Z,98066.88
2023-03-24T13:54:05.935Z,98069.63
2023-03-24T13:57:03.564Z,98073.81
2023-03-24T13:59:59.675Z,98065.19
2023-03-24T14:02:29.618Z,98086.66
2023-03-24T14:05:08.981Z,98089.34
2023-03-24T14:07:43.103Z,98087.06
2023-03-24T14:10:20.756Z,98089.00
2023-03-24T14:12:58.280Z,98089.94
2023-03-24T14:15:42.156Z,98077.34
2023-03-24T14:18:24.194Z,98088.50
2023-03-24T14:20:57.446Z,98085.69
2023-03-24T14:23:49.299Z,98061.66
2023-03-24T14:26:23.199Z,98078.09
2023-03-24T14:28:53.184Z,98081.41
2023-03-24T14:31:24.768Z,98087.97
2023-03-24T14:33:54.603Z,98081.91
2023-03-24T14:36:33.879Z,98080.03
2023-03-24T14:39:31.383Z,98103.63
2023-03-24T14:41:59.615Z,98119.88
2023-03-24T14:44:51.936Z,98120.34
2023-03-24T14:47:22.365Z,98105.78
2023-03-24T14:49:53.336Z,98108.03
2023-03-24T14:52:27.697Z,98102.47
2023-03-24T14:55:07.636Z,98094.53
2023-03-24T14:57:44.423Z,98096.66
2023-03-24T15:00:34.116Z,98095.25
2023-03-24T15:03:57.455Z,98088.13
2023-03-24T15:06:24.851Z,98084.47
2023-03-24T15:08:58.300Z,98100.19
2023-03-24T15:11:35.030Z,98108.03
2023-03-24T15:14:05.244Z,98123.44
2023-03-24T15:16:35.753Z,98111.84
2023-03-24T15:19:18.721Z,98111.84
2023-03-24T15:22:03.260Z,98087.47
2023-03-24T15:24:37.005Z,98080.78
2023-03-24T15:27:06.867Z,98097.38
2023-03-24T15:29:40.193Z,98094.28
2023-03-24T15:32:10.131Z,98097.53
2023-03-24T15:34:42.016Z,98099.75
2023-03-24T15:37:34.009Z,98100.00
2023-03-24T15:40:13.217Z,98091.47
2023-03-24T15:42:46.238Z,98096.69
2023-03-24T15:45:28.471Z,98109.38
2023-03-24T15:47:56.571Z,98119.91
2023-03-24T15:50:33.329Z,98113.97
2023-03-24T15:53:18.601Z,98122.41
2023-03-24T15:55:46.092Z,98104.78
2023-03-24T15:58:24.431Z,98120.88
2023-03-24T16:00:57.489Z,98096.50
2023-03-24T16:03:26.630Z,98108.34
2023-03-24T16:05:55.931Z,98109.28
2023-03-24T16:08:28.358Z,98094.69
2023-03-24T16:11:07.911Z,98100.13
2023-03-24T16:13:35.449Z,98116.34
2023-03-24T16:16:23.562Z,98112.56
2023-03-24T16:18:51.118Z,98095.00
2023-03-24T16:21:19.637Z,98106.03
2023-03-24T16:23:47.950Z,98082.88
2023-03-24T16:26:26.709Z,98110.72
2023-03-24T16:28:55.107Z,98125.16
2023-03-24T16:31:30.685Z,98118.41
2023-03-24T16:33:58.266Z,98114.44
2023-03-24T16:36:26.714Z,98126.50
2023-03-24T16:38:56.643Z,98126.72
2023-03-24T16:41:23.908Z,98135.88
2023-03-24T16:43:50.988Z,98119.75
2023-03-24T16:46:26.719Z,98136.00
2023-03-24T16:48:53.955Z,98150.44
2023-03-24T16:51:21.573Z,98150.69
2023-03-24T16:53:48.581Z,98135.25
2023-03-24T16:56:19.245Z,98144.41
2023-03-24T16:58:48.125Z,98131.03
2023-03-24T17:01:44.291Z,98126.41
2023-03-24T17:04:20.177Z,98119.66
2023-03-24T17:06:54.166Z,98119.31
2023-03-24T17:09:22.260Z,98115.63
2023-03-24T17:11:53.476Z,98120.84
2023-03-24T17:14:20.526Z,98127.81
2023-03-24T17:16:49.626Z,98123.22
2023-03-24T17:19:20.582Z,98127.25
2023-03-24T17:22:00.455Z,98115.88
2023-03-24T17:24:28.632Z,98114.94
2023-03-24T17:26:55.416Z,98112.78
2023-03-24T17:29:23.459Z,98111.16
2023-03-24T17:31:50.437Z,98119.69
2023-03-24T17:34:21.576Z,98122.72
2023-03-24T17:36:50.264Z,98109.22
2023-03-24T17:39:21.501Z,98119.09
2023-03-24T17:41:48.403Z,98133.16
2023-03-24T17:44:15.438Z,98113.84
2023-03-24T17:46:42.253Z,98122.25
2023-03-24T17:49:09.065Z,98140.59
2023-03-24T17:51:36.209Z,98131.94
2023-03-24T17:54:04.045Z,98147.31
2023-03-24T17:56:31.084Z,98155.63
2023-03-24T17:59:00.576Z,98147.56
2023-03-24T18:01:29.442Z,98162.94
2023-03-24T18:03:57.929Z,98174.63
2023-03-24T18:06:25.178Z,98169.75
2023-03-24T18:08:52.543Z,98174.22
2023-03-24T18:11:19.734Z,98173.28
2023-03-24T18:13:46.626Z,98162.56
2023-03-24T18:16:21.313Z,98175.13
2023-03-24T18:18:50.621Z,98178.28
2023-03-24T18:21:18.579Z,98191.91
2023-03-24T18:23:46.692Z,98194.53
2023-03-24T18:26:16.297Z,98201.84
2023-03-24T18:28:45.501Z,98187.00
2023-03-24T18:31:15.808Z,98198.63
2023-03-24T18:33:45.762Z,98194.34
2023-03-24T18:36:16.495Z,98190.63
2023-03-24T18:38:43.718Z,98198.31
2023-03-24T18:41:12.874Z,98190.25
2023-03-24T18:43:41.136Z,98196.91
2023-03-24T18:46:09.989Z,98203.53
2023-03-24T18:48:42.571Z,98204.34
2023-03-24T18:51:11.097Z,98197.94
2023-03-24T18:53:38.645Z,98204.34
2023-03-24T18:56:06.998Z,98191.84
2023-03-24T18:58:34.962Z,98216.03
2023-03-24T19:01:11.051Z,98209.28
2023-03-24T19:03:40.738Z,98209.09
2023-03-24T19:06:12.140Z,98214.50
2023-03-24T19:08:44.658Z,98215.41
2023-03-24T19:11:13.230Z,98231.03
2023-03-24T19:13:42.099Z,98226.53
2023-03-24T19:16:10.550Z,98222.53
2023-03-24T19:18:38.129Z,98207.44
2023-03-24T19:21:06.776Z,98228.78
2023-03-24T19:23:34.698Z,98241.06
2023-03-24T19:26:02.162Z,98245.22
2023-03-24T19:28:32.164Z,98253.63
2023-03-24T19:31:06.907Z,98245.66
2023-03-24T19:33:33.864Z,98239.41
2023-03-24T19:36:00.742Z,98247.22
2023-03-24T19:38:28.731Z,98248.34
2023-03-24T19:40:56.026Z,98264.25
2023-03-24T19:43:24.762Z,98263.03
2023-03-24T19:45:56.107Z,98264.91
2023-03-24T19:48:23.404Z,98270.81
2023-03-24T19:50:52.682Z,98273.72
2023-03-24T19:53:20.487Z,98265.00
2023-03-24T19:55:47.788Z,98255.84
2023-03-24T19:58:14.778Z,98261.44
2023-03-24T20:00:41.849Z,98262.47
2023-03-24T20:03:09.023Z,98265.84
2023-03-24T20:05:36.278Z,98268.53
2023-03-24T20:08:03.279Z,98263.94
2023-03-24T20:10:30.298Z,98272.38
2023-03-24T20:12:57.190Z,98270.66
2023-03-24T20:15:23.973Z,98264.72
2023-03-24T20:17:51.403Z,98266.69
2023-03-24T20:20:18.307Z,98262.09
2023-03-24T20:22:46.279Z,98272.72
2023-03-24T20:25:16.998Z,98276.28
2023-03-24T20:27:47.805Z,98285.38
2023-03-24T20:30:17.746Z,98277.06
2023-03-24T20:32:44.833Z,98276.66
2023-03-24T20:35:12.557Z,98265.66
2023-03-24T20:37:39.402Z,98251.59
2023-03-24T20:40:09.556Z,98265.44
2023-03-24T20:42:37.430Z,98247.63
2023-03-24T20:45:06.777Z,98262.41
2023-03-24T20:47:33.912Z,98225.06
2023-03-24T20:50:01.260Z,98258.84
2023-03-24T20:52:29.074Z,98255.88
2023-03-24T20:54:56.563Z,98242.53
2023-03-24T20:57:25.721Z,98245.66
2023-03-24T20:59:52.674Z,98238.69
2023-03-24T21:02:20.196Z,98264.06
2023-03-24T21:04:47.236Z,98262.28
2023-03-24T21:07:14.058Z,98258.22
2023-03-24T21:09:40.971Z,98265.00
2023-03-24T21:12:08.016Z,98261.88
2023-03-24T21:14:34.975Z,98230.47
2023-03-24T21:17:02.034Z,98247.53
2023-03-24T21:19:29.055Z,98239.09
2023-03-24T21:21:56.228Z,98270.69
2023-03-24T21:24:24.192Z,98280.97
2023-03-24T21:26:51.423Z,98264.47
2023-03-24T21:29:18.312Z,98274.03
2023-03-24T21:31:45.251Z,98283.56
2023-03-24T21:34:12.151Z,98280.75
2023-03-24T21:36:39.173Z,98283.78
2023-03-24T21:39:07.734Z,98297.09
2023-03-24T21:41:34.553Z,98291.88
2023-03-24T21:44:01.383Z,98292.19
2023-03-24T21:46:28.224Z,98304.03
2023-03-24T21:48:59.233Z,98305.50
2023-03-24T21:51:33.717Z,98301.00
2023-03-24T21:54:03.858Z,98313.78
2023-03-24T21:56:35.272Z,98302.75
2023-03-24T21:59:02.334Z,98321.69
2023-03-24T22:01:29.333Z,98307.81
2023-03-24T22:03:58.820Z,98324.13
2023-03-24T22:06:28.593Z,98329.53
2023-03-24T22:08:58.202Z,98326.63
2023-03-24T22:11:25.757Z,98310.59
2023-03-24T22:13:53.006Z,98310.59
2023-03-24T22:16:19.858Z,98300.63
2023-03-24T22:18:47.451Z,98305.09
2023-03-24T22:21:14.830Z,98281.25
2023-03-24T22:23:42.829Z,98310.13
2023-03-24T22:26:14.662Z,98312.25
2023-03-24T22:28:43.389Z,98301.44
2023-03-24T22:31:14.536Z,98317.75
2023-03-24T22:33:41.644Z,98325.31
2023-03-24T22:36:09.882Z,98307.84
2023-03-24T22:38:37.074Z,98323.91
2023-03-24T22:41:08.244Z,98331.16
2023-03-24T22:43:36.236Z,98318.38
2023-03-24T22:46:03.639Z,98325.44
2023-03-24T22:48:30.728Z,98333.69
2023-03-24T22:50:57.544Z,98323.47
2023-03-24T22:53:24.397Z,98340.31
2023-03-24T22:55:51.519Z,98341.50
2023-03-24T22:58:18.529Z,98345.94
2023-03-24T23:00:48.262Z,98311.50
2023-03-24T23:03:15.572Z,98355.19
2023-03-24T23:05:45.334Z,98352.69
2023-03-24T23:08:14.557Z,98353.63
2023-03-24T23:10:43.692Z,98366.72
2023-03-24T23:13:10.860Z,98367.13
2023-03-24T23:15:39.456Z,98346.91
2023-03-24T23:18:06.460Z,98353.00
2023-03-24T23:20:33.478Z,98316.16
2023-03-24T23:23:01.416Z,98345.81
2023-03-24T23:25:31.072Z,98325.94
2023-03-24T23:27:58.820Z,98346.84
2023-03-24T23:30:26.069Z,98355.19
2023-03-24T23:32:53.450Z,98357.34
2023-03-24T23:35:20.584Z,98363.44
2023-03-24T23:37:48.285Z,98357.59
2023-03-24T23:40:16.222Z,98372.63
2023-03-24T23:42:48.726Z,98364.31
2023-03-24T23:45:20.469Z,98381.25
2023-03-24T23:47:50.806Z,98370.41
2023-03-24T23:50:19.585Z,98359.28
2023-03-24T23:52:47.068Z,98373.00
2023-03-24T23:55:17.822Z,98370.50
2023-03-24T23:57:45.461Z,98375.78
